sensor_id;sensor_type;location;lat;lon;timestamp;P1;durP1;ratioP1;P2;durP2;ratioP2
4365;SDS011;2196;47.422;9.656;2024-01-27T00:02:14;1.53;;;1.37;;
4365;SDS011;2196;47.422;9.656;2024-01-27T00:04:41;1.33;;;1.30;;
4365;SDS011;2196;47.422;9.656;2024-01-27T00:07:08;3.53;;;1.93;;
4365;SDS011;2196;47.422;9.656;2024-01-27T00:09:39;1.37;;;1.30;;
4365;SDS011;2196;47.422;9.656;2024-01-27T00:12:08;2.53;;;1.63;;
4365;SDS011;2196;47.422;9.656;2024-01-27T00:14:37;2.03;;;1.83;;
4365;SDS011;2196;47.422;9.656;2024-01-27T00:17:05;2.33;;;1.40;;
4365;SDS011;2196;47.422;9.656;2024-01-27T00:19:32;1.23;;;1.13;;
4365;SDS011;2196;47.422;9.656;2024-01-27T00:21:59;2.50;;;1.47;;
4365;SDS011;2196;47.422;9.656;2024-01-27T00:24:27;1.20;;;1.20;;
4365;SDS011;2196;47.422;9.656;2024-01-27T00:26:54;1.10;;;1.10;;
4365;SDS011;2196;47.422;9.656;2024-01-27T00:29:23;3.23;;;1.33;;
4365;SDS011;2196;47.422;9.656;2024-01-27T00:31:50;1.20;;;1.10;;
4365;SDS011;2196;47.422;9.656;2024-01-27T00:34:19;2.07;;;0.70;;
4365;SDS011;2196;47.422;9.656;2024-01-27T00:36:46;2.87;;;0.60;;
4365;SDS011;2196;47.422;9.656;2024-01-27T00:39:15;0.77;;;0.77;;
4365;SDS011;2196;47.422;9.656;2024-01-27T00:41:42;2.93;;;1.20;;
4365;SDS011;2196;47.422;9.656;2024-01-27T00:44:09;1.87;;;1.37;;
4365;SDS011;2196;47.422;9.656;2024-01-27T00:46:38;0.80;;;0.80;;
4365;SDS011;2196;47.422;9.656;2024-01-27T00:49:05;1.20;;;0.70;;
4365;SDS011;2196;47.422;9.656;2024-01-27T00:51:32;2.57;;;0.90;;
4365;SDS011;2196;47.422;9.656;2024-01-27T00:54:00;0.70;;;0.70;;
4365;SDS011;2196;47.422;9.656;2024-01-27T00:56:27;0.97;;;0.67;;
4365;SDS011;2196;47.422;9.656;2024-01-27T00:58:54;1.53;;;0.87;;
4365;SDS011;2196;47.422;9.656;2024-01-27T01:01:21;0.70;;;0.70;;
4365;SDS011;2196;47.422;9.656;2024-01-27T01:03:50;1.43;;;0.73;;
4365;SDS011;2196;47.422;9.656;2024-01-27T01:06:17;1.40;;;0.70;;
4365;SDS011;2196;47.422;9.656;2024-01-27T01:08:44;4.43;;;0.77;;
4365;SDS011;2196;47.422;9.656;2024-01-27T01:11:11;1.87;;;0.97;;
4365;SDS011;2196;47.422;9.656;2024-01-27T01:13:39;1.80;;;1.10;;
4365;SDS011;2196;47.422;9.656;2024-01-27T01:16:07;0.80;;;0.80;;
4365;SDS011;2196;47.422;9.656;2024-01-27T01:18:34;1.03;;;1.00;;
4365;SDS011;2196;47.422;9.656;2024-01-27T01:21:03;0.60;;;0.60;;
4365;SDS011;2196;47.422;9.656;2024-01-27T01:23:30;1.03;;;0.70;;
4365;SDS011;2196;47.422;9.656;2024-01-27T01:25:57;1.30;;;0.90;;
4365;SDS011;2196;47.422;9.656;2024-01-27T01:28:25;1.40;;;1.30;;
4365;SDS011;2196;47.422;9.656;2024-01-27T01:30:53;0.80;;;0.80;;
4365;SDS011;2196;47.422;9.656;2024-01-27T01:33:20;0.53;;;0.53;;
4365;SDS011;2196;47.422;9.656;2024-01-27T01:35:47;3.20;;;1.13;;
4365;SDS011;2196;47.422;9.656;2024-01-27T01:38:16;0.67;;;0.60;;
4365;SDS011;2196;47.422;9.656;2024-01-27T01:40:43;0.60;;;0.60;;
4365;SDS011;2196;47.422;9.656;2024-01-27T01:43:10;1.90;;;0.97;;
4365;SDS011;2196;47.422;9.656;2024-01-27T01:45:38;1.43;;;0.63;;
4365;SDS011;2196;47.422;9.656;2024-01-27T01:48:05;0.83;;;0.83;;
4365;SDS011;2196;47.422;9.656;2024-01-27T01:50:32;0.70;;;0.40;;
4365;SDS011;2196;47.422;9.656;2024-01-27T01:53:00;2.03;;;0.73;;
4365;SDS011;2196;47.422;9.656;2024-01-27T01:55:29;3.13;;;1.17;;
4365;SDS011;2196;47.422;9.656;2024-01-27T01:57:56;0.87;;;0.70;;
4365;SDS011;2196;47.422;9.656;2024-01-27T02:00:23;1.70;;;0.60;;
4365;SDS011;2196;47.422;9.656;2024-01-27T02:02:51;0.67;;;0.63;;
4365;SDS011;2196;47.422;9.656;2024-01-27T02:05:18;2.47;;;0.77;;
4365;SDS011;2196;47.422;9.656;2024-01-27T02:07:45;0.77;;;0.40;;
4365;SDS011;2196;47.422;9.656;2024-01-27T02:10:13;0.90;;;0.40;;
4365;SDS011;2196;47.422;9.656;2024-01-27T02:12:42;0.67;;;0.50;;
4365;SDS011;2196;47.422;9.656;2024-01-27T02:15:10;1.53;;;0.70;;
4365;SDS011;2196;47.422;9.656;2024-01-27T02:17:38;2.67;;;0.70;;
4365;SDS011;2196;47.422;9.656;2024-01-27T02:20:06;1.03;;;0.57;;
4365;SDS011;2196;47.422;9.656;2024-01-27T02:22:34;1.47;;;1.07;;
4365;SDS011;2196;47.422;9.656;2024-01-27T02:25:03;5.27;;;1.53;;
4365;SDS011;2196;47.422;9.656;2024-01-27T02:27:30;0.70;;;0.70;;
4365;SDS011;2196;47.422;9.656;2024-01-27T02:29:57;1.10;;;1.07;;
4365;SDS011;2196;47.422;9.656;2024-01-27T02:32:24;1.20;;;1.10;;
4365;SDS011;2196;47.422;9.656;2024-01-27T02:34:52;0.70;;;0.70;;
4365;SDS011;2196;47.422;9.656;2024-01-27T02:37:19;0.90;;;0.90;;
4365;SDS011;2196;47.422;9.656;2024-01-27T02:39:46;3.13;;;1.30;;
4365;SDS011;2196;47.422;9.656;2024-01-27T02:42:16;1.10;;;1.10;;
4365;SDS011;2196;47.422;9.656;2024-01-27T02:44:43;0.77;;;0.77;;
4365;SDS011;2196;47.422;9.656;2024-01-27T02:47:13;1.63;;;1.37;;
4365;SDS011;2196;47.422;9.656;2024-01-27T02:49:40;1.30;;;1.03;;
4365;SDS011;2196;47.422;9.656;2024-01-27T02:52:08;2.53;;;1.03;;
4365;SDS011;2196;47.422;9.656;2024-01-27T02:54:39;3.37;;;1.20;;
4365;SDS011;2196;47.422;9.656;2024-01-27T02:57:06;0.60;;;0.60;;
4365;SDS011;2196;47.422;9.656;2024-01-27T02:59:34;0.70;;;0.70;;
4365;SDS011;2196;47.422;9.656;2024-01-27T03:02:01;0.70;;;0.70;;
4365;SDS011;2196;47.422;9.656;2024-01-27T03:04:28;0.57;;;0.57;;
4365;SDS011;2196;47.422;9.656;2024-01-27T03:06:56;1.07;;;0.80;;
4365;SDS011;2196;47.422;9.656;2024-01-27T03:09:23;1.20;;;0.90;;
4365;SDS011;2196;47.422;9.656;2024-01-27T03:11:50;1.67;;;1.03;;
4365;SDS011;2196;47.422;9.656;2024-01-27T03:14:17;1.13;;;0.80;;
4365;SDS011;2196;47.422;9.656;2024-01-27T03:16:46;0.87;;;0.87;;
4365;SDS011;2196;47.422;9.656;2024-01-27T03:19:13;2.37;;;1.00;;
4365;SDS011;2196;47.422;9.656;2024-01-27T03:21:41;1.37;;;1.13;;
4365;SDS011;2196;47.422;9.656;2024-01-27T03:24:08;1.17;;;1.00;;
4365;SDS011;2196;47.422;9.656;2024-01-27T03:26:35;0.80;;;0.80;;
4365;SDS011;2196;47.422;9.656;2024-01-27T03:29:02;2.83;;;0.80;;
4365;SDS011;2196;47.422;9.656;2024-01-27T03:31:30;3.30;;;1.03;;
4365;SDS011;2196;47.422;9.656;2024-01-27T03:33:59;2.40;;;1.00;;
4365;SDS011;2196;47.422;9.656;2024-01-27T03:36:26;0.90;;;0.90;;
4365;SDS011;2196;47.422;9.656;2024-01-27T03:38:54;0.80;;;0.80;;
4365;SDS011;2196;47.422;9.656;2024-01-27T03:41:22;2.33;;;1.03;;
4365;SDS011;2196;47.422;9.656;2024-01-27T03:43:49;2.20;;;0.90;;
4365;SDS011;2196;47.422;9.656;2024-01-27T03:46:16;1.33;;;1.10;;
4365;SDS011;2196;47.422;9.656;2024-01-27T03:48:44;2.87;;;1.50;;
4365;SDS011;2196;47.422;9.656;2024-01-27T03:51:12;1.80;;;1.00;;
4365;SDS011;2196;47.422;9.656;2024-01-27T03:53:40;2.77;;;1.13;;
4365;SDS011;2196;47.422;9.656;2024-01-27T03:56:06;3.50;;;1.70;;
4365;SDS011;2196;47.422;9.656;2024-01-27T03:58:37;3.27;;;1.10;;
4365;SDS011;2196;47.422;9.656;2024-01-27T04:01:04;1.10;;;0.73;;
4365;SDS011;2196;47.422;9.656;2024-01-27T04:03:31;4.27;;;0.97;;
4365;SDS011;2196;47.422;9.656;2024-01-27T04:05:58;0.97;;;0.97;;
4365;SDS011;2196;47.422;9.656;2024-01-27T04:08:28;1.40;;;1.30;;
4365;SDS011;2196;47.422;9.656;2024-01-27T04:10:56;2.70;;;1.37;;
4365;SDS011;2196;47.422;9.656;2024-01-27T04:13:22;2.67;;;1.00;;
4365;SDS011;2196;47.422;9.656;2024-01-27T04:15:50;2.20;;;1.33;;
4365;SDS011;2196;47.422;9.656;2024-01-27T04:18:19;2.27;;;0.90;;
4365;SDS011;2196;47.422;9.656;2024-01-27T04:20:46;3.37;;;0.90;;
4365;SDS011;2196;47.422;9.656;2024-01-27T04:23:13;1.73;;;1.00;;
4365;SDS011;2196;47.422;9.656;2024-01-27T04:25:42;1.17;;;1.03;;
4365;SDS011;2196;47.422;9.656;2024-01-27T04:28:09;1.80;;;0.93;;
4365;SDS011;2196;47.422;9.656;2024-01-27T04:30:37;2.13;;;1.23;;
4365;SDS011;2196;47.422;9.656;2024-01-27T04:33:05;1.87;;;1.13;;
4365;SDS011;2196;47.422;9.656;2024-01-27T04:35:32;3.43;;;1.80;;
4365;SDS011;2196;47.422;9.656;2024-01-27T04:37:59;4.50;;;2.00;;
4365;SDS011;2196;47.422;9.656;2024-01-27T04:40:28;3.10;;;1.33;;
4365;SDS011;2196;47.422;9.656;2024-01-27T04:42:56;1.47;;;1.37;;
4365;SDS011;2196;47.422;9.656;2024-01-27T04:45:23;1.37;;;1.23;;
4365;SDS011;2196;47.422;9.656;2024-01-27T04:47:50;1.90;;;1.80;;
4365;SDS011;2196;47.422;9.656;2024-01-27T04:50:18;1.37;;;1.20;;
4365;SDS011;2196;47.422;9.656;2024-01-27T04:52:45;1.70;;;1.47;;
4365;SDS011;2196;47.422;9.656;2024-01-27T04:55:13;5.43;;;1.87;;
4365;SDS011;2196;47.422;9.656;2024-01-27T04:57:40;3.47;;;1.87;;
4365;SDS011;2196;47.422;9.656;2024-01-27T05:00:09;2.83;;;1.50;;
4365;SDS011;2196;47.422;9.656;2024-01-27T05:02:38;1.17;;;1.07;;
4365;SDS011;2196;47.422;9.656;2024-01-27T05:05:06;4.93;;;1.37;;
4365;SDS011;2196;47.422;9.656;2024-01-27T05:07:33;1.80;;;1.63;;
4365;SDS011;2196;47.422;9.656;2024-01-27T05:10:00;0.97;;;0.97;;
4365;SDS011;2196;47.422;9.656;2024-01-27T05:12:28;4.23;;;1.70;;
4365;SDS011;2196;47.422;9.656;2024-01-27T05:14:55;4.70;;;1.47;;
4365;SDS011;2196;47.422;9.656;2024-01-27T05:17:23;1.80;;;1.50;;
4365;SDS011;2196;47.422;9.656;2024-01-27T05:19:51;3.27;;;1.57;;
4365;SDS011;2196;47.422;9.656;2024-01-27T05:22:18;1.43;;;1.33;;
4365;SDS011;2196;47.422;9.656;2024-01-27T05:24:45;3.77;;;1.90;;
4365;SDS011;2196;47.422;9.656;2024-01-27T05:27:12;1.87;;;1.77;;
4365;SDS011;2196;47.422;9.656;2024-01-27T05:29:40;3.27;;;2.10;;
4365;SDS011;2196;47.422;9.656;2024-01-27T05:32:07;1.77;;;1.67;;
4365;SDS011;2196;47.422;9.656;2024-01-27T05:34:35;1.83;;;1.57;;
4365;SDS011;2196;47.422;9.656;2024-01-27T05:37:03;4.53;;;2.00;;
4365;SDS011;2196;47.422;9.656;2024-01-27T05:39:30;4.10;;;2.30;;
4365;SDS011;2196;47.422;9.656;2024-01-27T05:41:59;2.90;;;2.67;;
4365;SDS011;2196;47.422;9.656;2024-01-27T05:44:26;4.13;;;3.23;;
4365;SDS011;2196;47.422;9.656;2024-01-27T05:46:53;3.70;;;3.50;;
4365;SDS011;2196;47.422;9.656;2024-01-27T05:49:21;5.37;;;4.77;;
4365;SDS011;2196;47.422;9.656;2024-01-27T05:51:50;7.87;;;5.47;;
4365;SDS011;2196;47.422;9.656;2024-01-27T05:54:17;8.70;;;5.23;;
4365;SDS011;2196;47.422;9.656;2024-01-27T05:56:44;5.57;;;5.07;;
4365;SDS011;2196;47.422;9.656;2024-01-27T05:59:11;9.97;;;5.87;;
4365;SDS011;2196;47.422;9.656;2024-01-27T06:01:39;7.37;;;4.77;;
4365;SDS011;2196;47.422;9.656;2024-01-27T06:04:08;5.30;;;3.97;;
4365;SDS011;2196;47.422;9.656;2024-01-27T06:06:37;5.90;;;4.70;;
4365;SDS011;2196;47.422;9.656;2024-01-27T06:09:07;6.93;;;4.57;;
4365;SDS011;2196;47.422;9.656;2024-01-27T06:11:36;6.90;;;3.80;;
4365;SDS011;2196;47.422;9.656;2024-01-27T06:14:03;5.33;;;3.47;;
4365;SDS011;2196;47.422;9.656;2024-01-27T06:16:31;3.20;;;2.80;;
4365;SDS011;2196;47.422;9.656;2024-01-27T06:19:00;2.97;;;2.77;;
4365;SDS011;2196;47.422;9.656;2024-01-27T06:21:27;4.03;;;3.27;;
4365;SDS011;2196;47.422;9.656;2024-01-27T06:23:55;2.53;;;2.43;;
4365;SDS011;2196;47.422;9.656;2024-01-27T06:26:23;4.93;;;2.83;;
4365;SDS011;2196;47.422;9.656;2024-01-27T06:28:50;3.07;;;2.77;;
4365;SDS011;2196;47.422;9.656;2024-01-27T06:31:18;3.00;;;2.80;;
4365;SDS011;2196;47.422;9.656;2024-01-27T06:33:45;5.63;;;2.57;;
4365;SDS011;2196;47.422;9.656;2024-01-27T06:36:12;3.13;;;2.93;;
4365;SDS011;2196;47.422;9.656;2024-01-27T06:38:39;3.90;;;3.60;;
4365;SDS011;2196;47.422;9.656;2024-01-27T06:41:06;3.90;;;2.90;;
4365;SDS011;2196;47.422;9.656;2024-01-27T06:43:35;3.80;;;3.47;;
4365;SDS011;2196;47.422;9.656;2024-01-27T06:46:02;4.20;;;3.63;;
4365;SDS011;2196;47.422;9.656;2024-01-27T06:48:30;4.73;;;3.43;;
4365;SDS011;2196;47.422;9.656;2024-01-27T06:50:57;6.00;;;4.00;;
4365;SDS011;2196;47.422;9.656;2024-01-27T06:53:24;4.87;;;3.90;;
4365;SDS011;2196;47.422;9.656;2024-01-27T06:55:51;5.50;;;3.53;;
4365;SDS011;2196;47.422;9.656;2024-01-27T06:58:18;3.93;;;3.70;;
4365;SDS011;2196;47.422;9.656;2024-01-27T07:00:47;5.10;;;4.70;;
4365;SDS011;2196;47.422;9.656;2024-01-27T07:03:15;4.60;;;4.20;;
4365;SDS011;2196;47.422;9.656;2024-01-27T07:05:42;7.83;;;5.13;;
4365;SDS011;2196;47.422;9.656;2024-01-27T07:08:09;9.07;;;4.77;;
4365;SDS011;2196;47.422;9.656;2024-01-27T07:10:36;7.67;;;6.23;;
4365;SDS011;2196;47.422;9.656;2024-01-27T07:13:04;9.27;;;4.70;;
4365;SDS011;2196;47.422;9.656;2024-01-27T07:15:32;7.60;;;4.53;;
4365;SDS011;2196;47.422;9.656;2024-01-27T07:18:01;4.00;;;3.73;;
4365;SDS011;2196;47.422;9.656;2024-01-27T07:20:28;8.73;;;5.70;;
4365;SDS011;2196;47.422;9.656;2024-01-27T07:22:56;5.80;;;5.30;;
4365;SDS011;2196;47.422;9.656;2024-01-27T07:25:23;5.20;;;4.80;;
4365;SDS011;2196;47.422;9.656;2024-01-27T07:27:50;5.47;;;4.97;;
4365;SDS011;2196;47.422;9.656;2024-01-27T07:30:17;5.23;;;4.50;;
4365;SDS011;2196;47.422;9.656;2024-01-27T07:32:45;5.03;;;4.50;;
4365;SDS011;2196;47.422;9.656;2024-01-27T07:35:13;5.43;;;5.10;;
4365;SDS011;2196;47.422;9.656;2024-01-27T07:37:41;5.43;;;5.03;;
4365;SDS011;2196;47.422;9.656;2024-01-27T07:40:09;6.80;;;6.10;;
4365;SDS011;2196;47.422;9.656;2024-01-27T07:42:36;7.33;;;5.07;;
4365;SDS011;2196;47.422;9.656;2024-01-27T07:45:04;6.17;;;5.67;;
4365;SDS011;2196;47.422;9.656;2024-01-27T07:47:33;6.13;;;5.63;;
4365;SDS011;2196;47.422;9.656;2024-01-27T07:50:00;6.37;;;5.73;;
4365;SDS011;2196;47.422;9.656;2024-01-27T07:52:29;8.97;;;6.37;;
4365;SDS011;2196;47.422;9.656;2024-01-27T07:54:57;8.83;;;7.90;;
4365;SDS011;2196;47.422;9.656;2024-01-27T07:57:24;9.80;;;8.90;;
4365;SDS011;2196;47.422;9.656;2024-01-27T07:59:51;10.33;;;9.20;;
4365;SDS011;2196;47.422;9.656;2024-01-27T08:02:18;10.87;;;7.60;;
4365;SDS011;2196;47.422;9.656;2024-01-27T08:04:46;8.40;;;6.40;;
4365;SDS011;2196;47.422;9.656;2024-01-27T08:07:13;7.83;;;5.93;;
4365;SDS011;2196;47.422;9.656;2024-01-27T08:09:43;5.10;;;4.57;;
4365;SDS011;2196;47.422;9.656;2024-01-27T08:12:10;6.20;;;4.47;;
4365;SDS011;2196;47.422;9.656;2024-01-27T08:14:41;5.67;;;3.90;;
4365;SDS011;2196;47.422;9.656;2024-01-27T08:17:08;4.97;;;3.50;;
4365;SDS011;2196;47.422;9.656;2024-01-27T08:19:36;3.57;;;3.30;;
4365;SDS011;2196;47.422;9.656;2024-01-27T08:22:03;5.70;;;3.63;;
4365;SDS011;2196;47.422;9.656;2024-01-27T08:24:30;3.40;;;3.13;;
4365;SDS011;2196;47.422;9.656;2024-01-27T08:26:59;3.10;;;2.87;;
4365;SDS011;2196;47.422;9.656;2024-01-27T08:29:26;7.53;;;3.93;;
4365;SDS011;2196;47.422;9.656;2024-01-27T08:31:53;4.40;;;3.63;;
4365;SDS011;2196;47.422;9.656;2024-01-27T08:34:20;3.87;;;3.37;;
4365;SDS011;2196;47.422;9.656;2024-01-27T08:36:47;3.57;;;3.30;;
4365;SDS011;2196;47.422;9.656;2024-01-27T08:39:14;4.93;;;4.47;;
4365;SDS011;2196;47.422;9.656;2024-01-27T08:41:42;5.13;;;4.47;;
4365;SDS011;2196;47.422;9.656;2024-01-27T08:44:11;5.03;;;4.63;;
4365;SDS011;2196;47.422;9.656;2024-01-27T08:46:38;6.50;;;4.57;;
4365;SDS011;2196;47.422;9.656;2024-01-27T08:49:05;5.90;;;5.30;;
4365;SDS011;2196;47.422;9.656;2024-01-27T08:51:33;5.47;;;4.97;;
4365;SDS011;2196;47.422;9.656;2024-01-27T08:54:00;4.73;;;4.30;;
4365;SDS011;2196;47.422;9.656;2024-01-27T08:56:28;5.53;;;4.90;;
4365;SDS011;2196;47.422;9.656;2024-01-27T08:58:55;4.87;;;3.60;;
4365;SDS011;2196;47.422;9.656;2024-01-27T09:01:23;4.90;;;4.37;;
4365;SDS011;2196;47.422;9.656;2024-01-27T09:03:51;5.87;;;4.37;;
4365;SDS011;2196;47.422;9.656;2024-01-27T09:06:18;5.03;;;3.77;;
4365;SDS011;2196;47.422;9.656;2024-01-27T09:08:45;3.53;;;3.23;;
4365;SDS011;2196;47.422;9.656;2024-01-27T09:11:12;8.37;;;3.80;;
4365;SDS011;2196;47.422;9.656;2024-01-27T09:13:40;3.73;;;3.47;;
4365;SDS011;2196;47.422;9.656;2024-01-27T09:16:07;5.37;;;4.07;;
4365;SDS011;2196;47.422;9.656;2024-01-27T09:18:39;3.57;;;3.27;;
4365;SDS011;2196;47.422;9.656;2024-01-27T09:21:06;3.47;;;3.17;;
4365;SDS011;2196;47.422;9.656;2024-01-27T09:23:34;3.63;;;3.53;;
4365;SDS011;2196;47.422;9.656;2024-01-27T09:26:02;4.00;;;3.70;;
4365;SDS011;2196;47.422;9.656;2024-01-27T09:28:29;3.37;;;3.00;;
4365;SDS011;2196;47.422;9.656;2024-01-27T09:30:56;3.93;;;3.53;;
4365;SDS011;2196;47.422;9.656;2024-01-27T09:33:24;4.43;;;4.20;;
4365;SDS011;2196;47.422;9.656;2024-01-27T09:35:52;4.73;;;4.40;;
4365;SDS011;2196;47.422;9.656;2024-01-27T09:38:20;5.03;;;4.63;;
4365;SDS011;2196;47.422;9.656;2024-01-27T09:40:48;4.80;;;4.40;;
4365;SDS011;2196;47.422;9.656;2024-01-27T09:43:15;4.57;;;4.27;;
4365;SDS011;2196;47.422;9.656;2024-01-27T09:45:44;4.70;;;4.30;;
4365;SDS011;2196;47.422;9.656;2024-01-27T09:48:12;5.23;;;4.80;;
4365;SDS011;2196;47.422;9.656;2024-01-27T09:50:40;4.30;;;4.00;;
4365;SDS011;2196;47.422;9.656;2024-01-27T09:53:09;5.30;;;4.40;;
4365;SDS011;2196;47.422;9.656;2024-01-27T09:55:37;4.97;;;4.47;;
4365;SDS011;2196;47.422;9.656;2024-01-27T09:58:04;4.03;;;3.63;;
4365;SDS011;2196;47.422;9.656;2024-01-27T10:00:32;3.67;;;3.30;;
4365;SDS011;2196;47.422;9.656;2024-01-27T10:03:01;4.07;;;3.60;;
4365;SDS011;2196;47.422;9.656;2024-01-27T10:05:28;3.50;;;3.30;;
4365;SDS011;2196;47.422;9.656;2024-01-27T10:07:56;4.77;;;4.10;;
4365;SDS011;2196;47.422;9.656;2024-01-27T10:10:24;5.53;;;4.90;;
4365;SDS011;2196;47.422;9.656;2024-01-27T10:12:52;5.07;;;4.27;;
4365;SDS011;2196;47.422;9.656;2024-01-27T10:15:20;4.73;;;3.87;;
4365;SDS011;2196;47.422;9.656;2024-01-27T10:17:48;4.17;;;3.87;;
4365;SDS011;2196;47.422;9.656;2024-01-27T10:20:15;4.00;;;3.60;;
4365;SDS011;2196;47.422;9.656;2024-01-27T10:22:44;3.57;;;3.37;;
4365;SDS011;2196;47.422;9.656;2024-01-27T10:25:11;3.63;;;3.27;;
4365;SDS011;2196;47.422;9.656;2024-01-27T10:27:40;3.83;;;3.60;;
4365;SDS011;2196;47.422;9.656;2024-01-27T10:30:14;3.03;;;2.67;;
4365;SDS011;2196;47.422;9.656;2024-01-27T10:32:43;3.50;;;2.40;;
4365;SDS011;2196;47.422;9.656;2024-01-27T10:35:11;6.40;;;2.90;;
4365;SDS011;2196;47.422;9.656;2024-01-27T10:37:38;4.17;;;3.03;;
4365;SDS011;2196;47.422;9.656;2024-01-27T10:40:06;4.27;;;2.47;;
4365;SDS011;2196;47.422;9.656;2024-01-27T10:42:34;3.17;;;2.27;;
4365;SDS011;2196;47.422;9.656;2024-01-27T10:45:04;2.67;;;2.53;;
4365;SDS011;2196;47.422;9.656;2024-01-27T10:47:32;2.50;;;2.30;;
4365;SDS011;2196;47.422;9.656;2024-01-27T10:49:59;3.30;;;3.00;;
4365;SDS011;2196;47.422;9.656;2024-01-27T10:52:28;3.00;;;2.80;;
4365;SDS011;2196;47.422;9.656;2024-01-27T10:54:58;3.90;;;3.50;;
4365;SDS011;2196;47.422;9.656;2024-01-27T10:57:26;4.90;;;3.00;;
4365;SDS011;2196;47.422;9.656;2024-01-27T10:59:54;3.50;;;3.20;;
4365;SDS011;2196;47.422;9.656;2024-01-27T11:02:23;3.13;;;2.93;;
4365;SDS011;2196;47.422;9.656;2024-01-27T11:04:51;3.30;;;3.03;;
4365;SDS011;2196;47.422;9.656;2024-01-27T11:07:20;4.37;;;3.03;;
4365;SDS011;2196;47.422;9.656;2024-01-27T11:09:48;3.70;;;3.07;;
4365;SDS011;2196;47.422;9.656;2024-01-27T11:12:19;3.10;;;2.80;;
4365;SDS011;2196;47.422;9.656;2024-01-27T11:14:46;5.70;;;3.23;;
4365;SDS011;2196;47.422;9.656;2024-01-27T11:17:18;3.60;;;2.37;;
4365;SDS011;2196;47.422;9.656;2024-01-27T11:19:47;5.73;;;3.57;;
4365;SDS011;2196;47.422;9.656;2024-01-27T11:22:23;2.63;;;2.43;;
4365;SDS011;2196;47.422;9.656;2024-01-27T11:24:51;8.03;;;2.90;;
4365;SDS011;2196;47.422;9.656;2024-01-27T11:27:18;5.90;;;4.93;;
4365;SDS011;2196;47.422;9.656;2024-01-27T11:29:55;3.63;;;3.30;;
4365;SDS011;2196;47.422;9.656;2024-01-27T11:32:22;5.50;;;3.17;;
4365;SDS011;2196;47.422;9.656;2024-01-27T11:34:51;4.20;;;3.13;;
4365;SDS011;2196;47.422;9.656;2024-01-27T11:37:18;2.40;;;2.00;;
4365;SDS011;2196;47.422;9.656;2024-01-27T11:39:50;3.37;;;2.77;;
4365;SDS011;2196;47.422;9.656;2024-01-27T11:42:17;5.10;;;4.60;;
4365;SDS011;2196;47.422;9.656;2024-01-27T11:44:45;1.97;;;1.90;;
4365;SDS011;2196;47.422;9.656;2024-01-27T11:47:16;3.33;;;1.90;;
4365;SDS011;2196;47.422;9.656;2024-01-27T11:49:44;3.13;;;2.83;;
4365;SDS011;2196;47.422;9.656;2024-01-27T11:52:19;3.37;;;2.37;;
4365;SDS011;2196;47.422;9.656;2024-01-27T11:54:53;3.17;;;2.27;;
4365;SDS011;2196;47.422;9.656;2024-01-27T11:57:20;3.00;;;2.00;;
4365;SDS011;2196;47.422;9.656;2024-01-27T11:59:47;4.17;;;2.27;;
4365;SDS011;2196;47.422;9.656;2024-01-27T12:02:13;2.70;;;2.60;;
4365;SDS011;2196;47.422;9.656;2024-01-27T12:04:41;2.10;;;2.00;;
4365;SDS011;2196;47.422;9.656;2024-01-27T12:07:08;4.50;;;2.40;;
4365;SDS011;2196;47.422;9.656;2024-01-27T12:09:41;3.43;;;2.43;;
4365;SDS011;2196;47.422;9.656;2024-01-27T12:12:08;2.37;;;2.17;;
4365;SDS011;2196;47.422;9.656;2024-01-27T12:14:38;3.00;;;2.50;;
4365;SDS011;2196;47.422;9.656;2024-01-27T12:17:08;2.47;;;2.10;;
4365;SDS011;2196;47.422;9.656;2024-01-27T12:19:36;2.80;;;2.60;;
4365;SDS011;2196;47.422;9.656;2024-01-27T12:22:03;2.30;;;2.10;;
4365;SDS011;2196;47.422;9.656;2024-01-27T12:24:32;2.97;;;2.50;;
4365;SDS011;2196;47.422;9.656;2024-01-27T12:27:00;2.50;;;2.37;;
4365;SDS011;2196;47.422;9.656;2024-01-27T12:29:28;3.90;;;2.60;;
4365;SDS011;2196;47.422;9.656;2024-01-27T12:31:55;2.90;;;2.30;;
4365;SDS011;2196;47.422;9.656;2024-01-27T12:34:22;3.97;;;1.93;;
4365;SDS011;2196;47.422;9.656;2024-01-27T12:36:49;2.80;;;1.60;;
4365;SDS011;2196;47.422;9.656;2024-01-27T12:39:16;3.90;;;2.70;;
4365;SDS011;2196;47.422;9.656;2024-01-27T12:41:43;3.30;;;3.00;;
4365;SDS011;2196;47.422;9.656;2024-01-27T12:44:12;4.80;;;2.60;;
4365;SDS011;2196;47.422;9.656;2024-01-27T12:46:39;2.90;;;2.67;;
4365;SDS011;2196;47.422;9.656;2024-01-27T12:49:06;6.20;;;3.47;;
4365;SDS011;2196;47.422;9.656;2024-01-27T12:51:34;3.03;;;2.57;;
4365;SDS011;2196;47.422;9.656;2024-01-27T12:54:01;3.83;;;3.33;;
4365;SDS011;2196;47.422;9.656;2024-01-27T12:56:28;3.57;;;3.13;;
4365;SDS011;2196;47.422;9.656;2024-01-27T12:58:55;3.63;;;3.37;;
4365;SDS011;2196;47.422;9.656;2024-01-27T13:01:24;2.90;;;2.63;;
4365;SDS011;2196;47.422;9.656;2024-01-27T13:03:52;3.57;;;3.27;;
4365;SDS011;2196;47.422;9.656;2024-01-27T13:06:19;4.30;;;3.67;;
4365;SDS011;2196;47.422;9.656;2024-01-27T13:08:48;4.77;;;4.40;;
4365;SDS011;2196;47.422;9.656;2024-01-27T13:11:16;5.10;;;3.90;;
4365;SDS011;2196;47.422;9.656;2024-01-27T13:13:43;3.70;;;3.50;;
4365;SDS011;2196;47.422;9.656;2024-01-27T13:16:10;4.03;;;3.67;;
4365;SDS011;2196;47.422;9.656;2024-01-27T13:18:38;4.17;;;3.40;;
4365;SDS011;2196;47.422;9.656;2024-01-27T13:21:05;4.20;;;3.77;;
4365;SDS011;2196;47.422;9.656;2024-01-27T13:23:33;9.27;;;4.37;;
4365;SDS011;2196;47.422;9.656;2024-01-27T13:26:01;3.77;;;3.40;;
4365;SDS011;2196;47.422;9.656;2024-01-27T13:28:28;5.97;;;4.47;;
4365;SDS011;2196;47.422;9.656;2024-01-27T13:30:55;4.23;;;3.90;;
4365;SDS011;2196;47.422;9.656;2024-01-27T13:33:22;5.03;;;4.53;;
4365;SDS011;2196;47.422;9.656;2024-01-27T13:35:51;4.80;;;4.27;;
4365;SDS011;2196;47.422;9.656;2024-01-27T13:38:18;8.20;;;4.80;;
4365;SDS011;2196;47.422;9.656;2024-01-27T13:40:48;8.10;;;4.03;;
4365;SDS011;2196;47.422;9.656;2024-01-27T13:43:15;4.77;;;4.37;;
4365;SDS011;2196;47.422;9.656;2024-01-27T13:45:42;5.60;;;4.23;;
4365;SDS011;2196;47.422;9.656;2024-01-27T13:48:11;7.03;;;4.40;;
4365;SDS011;2196;47.422;9.656;2024-01-27T13:50:38;4.30;;;3.87;;
4365;SDS011;2196;47.422;9.656;2024-01-27T13:53:07;4.87;;;3.03;;
4365;SDS011;2196;47.422;9.656;2024-01-27T13:55:34;3.93;;;3.63;;
4365;SDS011;2196;47.422;9.656;2024-01-27T13:58:02;4.80;;;3.27;;
4365;SDS011;2196;47.422;9.656;2024-01-27T14:00:30;3.97;;;3.60;;
4365;SDS011;2196;47.422;9.656;2024-01-27T14:02:59;4.63;;;4.23;;
4365;SDS011;2196;47.422;9.656;2024-01-27T14:05:26;4.67;;;3.80;;
4365;SDS011;2196;47.422;9.656;2024-01-27T14:07:54;7.60;;;4.00;;
4365;SDS011;2196;47.422;9.656;2024-01-27T14:10:23;3.20;;;2.90;;
4365;SDS011;2196;47.422;9.656;2024-01-27T14:12:50;3.80;;;3.50;;
4365;SDS011;2196;47.422;9.656;2024-01-27T14:15:17;2.87;;;2.67;;
4365;SDS011;2196;47.422;9.656;2024-01-27T14:17:46;7.50;;;5.40;;
4365;SDS011;2196;47.422;9.656;2024-01-27T14:20:13;4.10;;;3.60;;
4365;SDS011;2196;47.422;9.656;2024-01-27T14:22:40;2.90;;;2.60;;
4365;SDS011;2196;47.422;9.656;2024-01-27T14:25:07;3.23;;;2.80;;
4365;SDS011;2196;47.422;9.656;2024-01-27T14:27:36;3.20;;;3.00;;
4365;SDS011;2196;47.422;9.656;2024-01-27T14:30:04;4.27;;;3.87;;
4365;SDS011;2196;47.422;9.656;2024-01-27T14:32:31;6.47;;;3.40;;
4365;SDS011;2196;47.422;9.656;2024-01-27T14:34:58;3.90;;;3.07;;
4365;SDS011;2196;47.422;9.656;2024-01-27T14:37:26;5.30;;;4.80;;
4365;SDS011;2196;47.422;9.656;2024-01-27T14:39:53;4.63;;;4.23;;
4365;SDS011;2196;47.422;9.656;2024-01-27T14:42:20;4.30;;;3.97;;
4365;SDS011;2196;47.422;9.656;2024-01-27T14:44:50;5.33;;;4.47;;
4365;SDS011;2196;47.422;9.656;2024-01-27T14:47:18;5.60;;;4.60;;
4365;SDS011;2196;47.422;9.656;2024-01-27T14:49:46;5.27;;;4.87;;
4365;SDS011;2196;47.422;9.656;2024-01-27T14:52:16;4.70;;;4.30;;
4365;SDS011;2196;47.422;9.656;2024-01-27T14:54:43;6.47;;;3.50;;
4365;SDS011;2196;47.422;9.656;2024-01-27T14:57:10;4.57;;;4.17;;
4365;SDS011;2196;47.422;9.656;2024-01-27T14:59:37;4.33;;;3.93;;
4365;SDS011;2196;47.422;9.656;2024-01-27T15:02:06;5.40;;;4.70;;
4365;SDS011;2196;47.422;9.656;2024-01-27T15:04:34;5.20;;;4.80;;
4365;SDS011;2196;47.422;9.656;2024-01-27T15:07:01;4.80;;;4.40;;
4365;SDS011;2196;47.422;9.656;2024-01-27T15:09:28;5.20;;;4.63;;
4365;SDS011;2196;47.422;9.656;2024-01-27T15:11:55;6.43;;;3.80;;
4365;SDS011;2196;47.422;9.656;2024-01-27T15:14:22;4.87;;;3.67;;
4365;SDS011;2196;47.422;9.656;2024-01-27T15:16:49;5.50;;;4.70;;
4365;SDS011;2196;47.422;9.656;2024-01-27T15:19:18;5.00;;;3.27;;